Portada
METAR-TAF:

METAR-TAF

Aeroports :

Belgaum, Índia

latitud: 15-51-33N, longitud: 74-37-03E, altitud: 758 m

Observació

L'informe es va fer fa 26 minuts, a les 12:00 UTC
Vent 6 kt del Oest
Temperatura 35°C
Humitat 47%
Pressió 1011 hPa
Visibilitat 10 km o més
Escasses núvols a una alçada de 1500 ft

METAR: VOBM 251200Z 27006KT 9999 FEW015 35/22 Q1011

Hora: 17:56 (12:26 UTC)

Pronòstic

L'informe es va fer fa 4 hores i 26 minuts, a les 08:00 UTC
Pronòstic vàlid del 25 a les 09 UTC al 25 a les 18 UTC
Vent 10 kt del Oest
Visibilitat: 8000 m
Núvols disperses a una alçada de 1500 ft

TAF: VOBM 250800Z 2509/2518 27010KT 8000 SCT015

Observacions i pronòstics meteorològics de més de 4000 aeroports (METAR i TAF).

Les estacions disponibles són els punts grocs i vermells al mapa.

Posi el ratolí al punt desitjat per veure el nom de l'estació.

Feu clic per veure les observacions i els pronòstics meteorològics.

Per canviar el mapa: feu clic els botons verds amb una creu de color negre per apropar; al botó verd amb un guió per allunyar la imatge; o en les fletxes verdes per a mapes adjacents.


METAR-TAF: